Time;durP1;ratioP1;P1;durP2;ratioP2;P2;SDS_P1;SDS_P2;PMS_P1;PMS_P2;Temp;Humidity;BMP_temperature;BMP_pressure;BME280_temperature;BME280_humidity;BME280_pressure;Samples;Min_cycle;Max_cycle;Signal;HPM_P1;HPM_P2
2022/11/24 00:01:33;;;;;;;54.38;26.00;;;;;;;11.65;75.16;98538.06;5071434;28;20027;-80
2022/11/24 00:04:04;;;;;;;54.95;27.65;;;;;;;10.96;75.13;98417.13;5054432;28;20048;-80
2022/11/24 00:06:30;;;;;;;53.90;27.48;;;;;;;11.32;74.65;98502.00;5053474;28;20031;-80
2022/11/24 00:08:57;;;;;;;56.25;28.10;;;;;;;11.86;74.20;98558.97;5071287;28;20048;-80
2022/11/24 00:11:26;;;;;;;63.72;30.17;;;;;;;11.89;74.62;98563.88;5070631;28;20045;-80
2022/11/24 00:13:52;;;;;;;60.22;29.92;;;;;;;11.48;74.49;98513.13;5071302;28;20025;-80
2022/11/24 00:16:23;;;;;;;62.22;31.02;;;;;;;11.92;74.40;98574.03;5053261;28;20021;-80
2022/11/24 00:18:52;;;;;;;57.25;28.73;;;;;;;11.94;74.34;98566.69;5053192;28;20114;-80
2022/11/24 00:21:18;;;;;;;47.60;25.17;;;;;;;11.89;74.26;98569.16;5071070;28;20028;-80
2022/11/24 00:23:44;;;;;;;43.70;24.80;;;;;;;11.07;74.07;98413.84;5073255;28;20028;-80
2022/11/24 00:26:09;;;;;;;46.15;24.92;;;;;;;12.02;74.58;98560.34;5077833;28;20492;-80
2022/11/24 00:28:36;;;;;;;54.00;28.58;;;;;;;11.30;74.32;98448.53;5077787;28;20052;-80
2022/11/24 00:31:02;;;;;;;48.65;25.83;;;;;;;12.06;73.95;98564.19;5077902;28;20024;-80
2022/11/24 00:33:28;;;;;;;53.60;27.95;;;;;;;12.08;74.31;98562.97;5059803;28;20082;-80
2022/11/24 00:35:58;;;;;;;45.15;25.80;;;;;;;11.34;74.14;98441.00;5059739;28;20024;-80
2022/11/24 00:38:23;;;;;;;45.35;26.88;;;;;;;11.60;74.17;98490.31;5077798;28;20477;-80
2022/11/24 00:40:50;;;;;;;51.30;26.95;;;;;;;11.84;74.12;98523.97;5077678;28;20035;-80
2022/11/24 00:43:15;;;;;;;53.00;27.55;;;;;;;11.57;74.62;98485.44;5077670;28;20033;-80
2022/11/24 00:45:41;;;;;;;51.30;27.38;;;;;;;11.65;74.75;98507.16;5077825;28;20101;-80
2022/11/24 00:48:07;;;;;;;45.60;26.00;;;;;;;11.23;74.74;98446.94;5059509;28;20126;-80
2022/11/24 00:50:32;;;;;;;46.45;25.55;;;;;;;12.11;74.95;98577.59;5059597;28;20016;-80
2022/11/24 00:52:58;;;;;;;42.22;25.13;;;;;;;12.14;74.66;98576.38;5059596;28;20028;-80
2022/11/24 00:55:23;;;;;;;40.25;24.25;;;;;;;12.13;74.67;98574.75;5077681;28;20133;-80
2022/11/24 00:57:49;;;;;;;40.80;24.48;;;;;;;11.51;74.69;98481.78;5077625;28;20444;-80
2022/11/24 01:00:15;;;;;;;44.53;25.77;;;;;;;11.57;74.67;98493.38;5077526;28;20029;-80
2022/11/24 01:02:40;;;;;;;45.25;27.17;;;;;;;10.89;74.58;98363.53;5077564;28;20062;-80
2022/11/24 01:05:06;;;;;;;49.15;27.50;;;;;;;10.79;74.07;98354.22;5076812;28;20483;-80
2022/11/24 01:07:32;;;;;;;43.03;27.23;;;;;;;11.85;74.68;98528.25;5075703;28;20027;-80
2022/11/24 01:09:57;;;;;;;47.22;28.50;;;;;;;11.78;74.43;98516.88;5077274;28;20409;-80
2022/11/24 01:12:22;;;;;;;54.72;30.63;;;;;;;11.80;74.28;98493.69;5077249;28;20107;-80
2022/11/24 01:14:48;;;;;;;62.25;33.55;;;;;;;11.72;74.03;98473.56;5076773;28;20107;-80
2022/11/24 01:17:13;;;;;;;47.75;29.42;;;;;;;12.29;74.34;98563.66;5059300;28;20095;-80
2022/11/24 01:19:39;;;;;;;50.47;30.25;;;;;;;12.14;74.15;98537.47;5059444;28;20111;-80
2022/11/24 01:22:04;;;;;;;46.95;28.85;;;;;;;12.26;74.02;98559.59;5077600;28;20042;-80
2022/11/24 01:24:30;;;;;;;44.47;27.08;;;;;;;11.85;73.96;98493.88;5077637;28;20111;-80
2022/11/24 01:26:55;;;;;;;39.72;25.55;;;;;;;12.27;74.24;98560.41;5077471;28;20024;-80
2022/11/24 01:29:21;;;;;;;50.33;29.90;;;;;;;11.34;74.11;98423.31;5077433;28;20032;-80
2022/11/24 01:31:46;;;;;;;35.58;23.90;;;;;;;12.26;74.29;98566.72;5059385;28;20020;-80
2022/11/24 01:34:12;;;;;;;35.65;24.80;;;;;;;11.94;74.53;98515.63;5077328;28;20034;-80
2022/11/24 01:36:38;;;;;;;35.40;23.02;;;;;;;12.23;74.38;98561.84;5073192;28;20024;-80
2022/11/24 01:39:03;;;;;;;35.33;24.48;;;;;;;11.53;74.37;98449.88;5056256;28;20036;-80
2022/11/24 01:41:29;;;;;;;34.03;24.40;;;;;;;11.73;74.30;98493.69;5073786;28;20029;-80
2022/11/24 01:43:55;;;;;;;39.63;25.85;;;;;;;12.08;74.24;98519.81;5056065;28;20028;-80
2022/11/24 01:46:37;;;;;;;29.73;22.10;;;;;;;12.27;74.40;98550.63;5056384;28;20051;-80
2022/11/24 01:49:17;;;;;;;32.65;23.83;;;;;;;11.60;74.18;98448.81;5073840;28;20024;-80
2022/11/24 01:52:18;;;;;;;37.00;24.05;;;;;;;12.21;74.28;98545.38;5055841;28;20563;-80
2022/11/24 01:54:50;;;;;;;25.70;17.25;;;;;;;11.98;73.97;98537.97;5032775;28;20430;-79
2022/11/24 01:57:30;;;;;;;22.60;16.73;;;;;;;11.46;73.45;98458.63;5073771;28;20024;-80
2022/11/24 02:00:04;;;;;;;24.38;17.55;;;;;;;11.52;73.00;98493.19;5072844;28;20553;-80
2022/11/24 02:02:29;;;;;;;23.10;16.60;;;;;;;11.54;73.04;98496.44;5073504;28;20485;-79
2022/11/24 02:05:04;;;;;;;19.25;13.23;;;;;;;11.42;72.81;98483.88;5073354;28;20100;-80
2022/11/24 02:07:29;;;;;;;20.77;15.35;;;;;;;11.71;72.88;98543.34;5073293;28;20036;-80
2022/11/24 02:10:00;;;;;;;22.13;15.45;;;;;;;11.72;72.35;98558.19;5055145;28;20056;-80
2022/11/24 02:12:26;;;;;;;23.63;16.13;;;;;;;11.46;72.35;98506.22;5073755;28;20039;-80
2022/11/24 02:14:53;;;;;;;21.02;15.63;;;;;;;11.32;72.21;98511.75;5055546;28;20476;-80
2022/11/24 02:17:19;;;;;;;20.60;14.57;;;;;;;11.32;71.75;98519.69;5073386;28;20028;-80
2022/11/24 02:20:00;;;;;;;18.42;13.73;;;;;;;11.60;72.51;98551.91;5073187;28;20032;-79
2022/11/24 02:22:41;;;;;;;17.40;13.77;;;;;;;11.55;71.98;98543.78;5073339;28;20039;-80
2022/11/24 02:25:24;;;;;;;20.95;14.73;;;;;;;11.52;71.88;98546.84;5073112;28;20032;-80
2022/11/24 02:27:51;;;;;;;20.45;15.30;;;;;;;11.16;71.75;98493.72;5073136;28;20048;-80
2022/11/24 02:30:17;;;;;;;17.67;13.82;;;;;;;11.04;71.96;98482.94;5055185;28;20020;-80
2022/11/24 02:32:42;;;;;;;21.67;13.02;;;;;;;11.38;71.61;98561.13;5073196;28;20512;-80
2022/11/24 02:35:09;;;;;;;21.05;14.50;;;;;;;11.47;70.85;98559.88;5055097;28;20020;-80
2022/11/24 02:37:35;;;;;;;21.85;14.07;;;;;;;11.13;71.12;98529.25;5073102;28;20063;-80
2022/11/24 02:40:00;;;;;;;22.30;16.00;;;;;;;11.09;71.13;98509.53;5072912;28;20056;-80
2022/11/24 02:42:29;;;;;;;27.35;18.23;;;;;;;10.49;70.84;98417.22;5072960;28;20028;-80
2022/11/24 02:44:58;;;;;;;26.10;16.80;;;;;;;11.05;71.20;98508.34;5072836;28;20032;-80
2022/11/24 02:47:24;;;;;;;19.63;14.10;;;;;;;9.63;70.69;98276.63;5072698;28;20464;-80
2022/11/24 02:49:49;;;;;;;18.23;13.98;;;;;;;10.79;71.19;98462.47;5072466;28;20029;-80
2022/11/24 02:52:15;;;;;;;20.63;14.77;;;;;;;10.98;71.09;98499.63;5072356;28;20556;-80
2022/11/24 02:54:40;;;;;;;28.73;17.10;;;;;;;11.09;71.37;98528.03;5072298;28;20036;-80
2022/11/24 02:57:06;;;;;;;28.15;18.92;;;;;;;10.99;71.32;98527.66;5054617;28;20178;-80
2022/11/24 02:59:31;;;;;;;34.92;21.83;;;;;;;11.02;72.21;98519.31;5072731;28;20119;-80
2022/11/24 03:01:57;;;;;;;31.00;21.25;;;;;;;10.62;72.23;98463.91;5072550;28;20024;-80
2022/11/24 03:04:22;;;;;;;39.58;24.92;;;;;;;10.43;72.43;98439.16;5072136;28;20020;-80
2022/11/24 03:06:47;;;;;;;48.97;24.45;;;;;;;11.05;72.55;98532.91;5054298;28;20111;-80
2022/11/24 03:09:13;;;;;;;39.00;24.27;;;;;;;11.34;72.52;98581.88;5065624;28;20548;-80
2022/11/24 03:11:39;;;;;;;65.93;26.73;;;;;;;10.99;72.70;98528.47;5072250;28;20035;-80
2022/11/24 03:14:05;;;;;;;73.45;27.50;;;;;;;10.99;72.94;98541.66;5072088;28;20028;-80
2022/11/24 03:16:30;;;;;;;48.22;27.33;;;;;;;10.97;73.15;98554.25;5072113;28;20107;-80
2022/11/24 03:18:56;;;;;;;55.58;28.08;;;;;;;11.24;74.09;98570.91;5072404;28;20103;-80
2022/11/24 03:21:21;;;;;;;75.65;27.73;;;;;;;10.55;74.21;98468.38;5072272;28;20481;-80
2022/11/24 03:23:46;;;;;;;104.10;29.80;;;;;;;10.78;74.66;98515.47;5072066;28;20039;-80
2022/11/24 03:26:15;;;;;;;61.28;28.73;;;;;;;11.19;74.88;98583.94;5070670;28;20039;-80
2022/11/24 03:28:41;;;;;;;63.15;29.15;;;;;;;10.55;74.21;98470.22;5072074;28;20024;-80
2022/11/24 03:31:07;;;;;;;80.88;30.50;;;;;;;10.44;74.44;98443.44;5070639;28;20571;-80
2022/11/24 03:33:34;;;;;;;53.33;28.00;;;;;;;11.28;74.28;98577.41;5071963;28;20063;-80
2022/11/24 03:35:59;;;;;;;73.03;32.22;;;;;;;9.61;74.67;98317.38;5070518;28;20020;-80
2022/11/24 03:38:25;;;;;;;46.72;29.05;;;;;;;10.85;74.88;98526.84;5071696;28;20488;-80
2022/11/24 03:40:50;;;;;;;51.13;29.50;;;;;;;10.65;75.28;98489.91;5071654;28;20512;-80
2022/11/24 03:43:16;;;;;;;49.05;30.25;;;;;;;10.59;74.60;98477.53;5071757;28;20059;-80
2022/11/24 03:45:44;;;;;;;48.85;29.15;;;;;;;10.55;74.29;98500.06;5071845;28;20100;-80
2022/11/24 03:48:10;;;;;;;60.83;32.38;;;;;;;11.09;74.77;98579.03;5069529;28;20032;-80
2022/11/24 03:50:35;;;;;;;57.33;33.03;;;;;;;10.73;74.50;98500.25;5071590;28;20021;-80
2022/11/24 03:53:01;;;;;;;43.67;28.23;;;;;;;11.01;74.56;98552.03;5070095;28;20111;-80
2022/11/24 03:55:26;;;;;;;45.40;28.42;;;;;;;11.04;74.46;98580.66;5071512;28;20467;-80
2022/11/24 03:57:51;;;;;;;49.72;30.73;;;;;;;10.86;74.29;98523.19;5071190;28;20561;-80
2022/11/24 04:00:17;;;;;;;44.97;28.27;;;;;;;11.26;74.27;98599.78;5071220;28;20417;-80
2022/11/24 04:02:43;;;;;;;38.22;26.02;;;;;;;10.91;74.23;98556.91;5071660;28;20036;-80
2022/11/24 04:05:09;;;;;;;34.50;24.45;;;;;;;11.21;74.15;98605.69;5071316;28;20024;-80
2022/11/24 04:07:34;;;;;;;34.33;24.50;;;;;;;10.80;73.59;98558.34;5069939;28;20035;-80
2022/11/24 04:09:59;;;;;;;31.67;22.98;;;;;;;10.68;73.71;98546.75;5071471;28;20028;-80
2022/11/24 04:12:43;;;;;;;28.05;20.25;;;;;;;10.98;73.52;98589.41;5071145;28;20040;-80
2022/11/24 04:15:13;;;;;;;25.67;18.70;;;;;;;10.97;73.79;98607.09;5071150;28;20085;-80
2022/11/24 04:17:38;;;;;;;26.98;19.05;;;;;;;10.55;72.87;98558.13;5053315;28;20028;-80
2022/11/24 04:20:04;;;;;;;25.35;18.98;;;;;;;10.73;72.92;98597.13;5053181;28;20043;-80
2022/11/24 04:22:30;;;;;;;24.55;18.63;;;;;;;10.82;72.78;98614.41;5071268;28;20028;-80
2022/11/24 04:24:55;;;;;;;47.95;31.95;;;;;;;10.16;72.96;98517.41;5071096;28;20062;-79
2022/11/24 04:27:21;;;;;;;37.17;24.67;;;;;;;9.64;72.59;98464.53;5071122;28;20416;-79
2022/11/24 04:29:46;;;;;;;33.03;23.23;;;;;;;10.73;73.03;98599.75;5053167;28;20477;-80
2022/11/24 04:32:11;;;;;;;31.00;22.75;;;;;;;10.20;72.79;98517.88;5071486;28;20024;-80
2022/11/24 04:34:37;;;;;;;30.15;22.60;;;;;;;10.26;72.63;98545.28;5071127;28;20417;-79
2022/11/24 04:37:02;;;;;;;34.13;23.90;;;;;;;10.48;72.55;98573.13;5071046;28;20040;-79
2022/11/24 04:39:28;;;;;;;32.38;22.88;;;;;;;10.07;72.96;98510.72;5070865;28;20451;-80
2022/11/24 04:41:53;;;;;;;38.40;23.67;;;;;;;10.66;72.77;98599.75;5052395;28;20109;-80
2022/11/24 04:44:19;;;;;;;37.72;28.30;;;;;;;10.10;72.52;98520.88;5071091;28;20481;-80
2022/11/24 04:46:44;;;;;;;39.42;28.42;;;;;;;10.85;73.00;98636.94;5071134;28;20472;-80
2022/11/24 04:49:10;;;;;;;36.90;27.33;;;;;;;8.50;72.45;98267.66;5070878;28;20029;-80
2022/11/24 04:51:39;;;;;;;35.05;25.75;;;;;;;10.53;73.02;98604.22;5052765;28;20028;-80
2022/11/24 04:54:06;;;;;;;36.38;25.10;;;;;;;10.30;72.92;98539.38;5071240;28;20093;-80
2022/11/24 04:56:32;;;;;;;33.35;25.13;;;;;;;10.89;72.81;98646.09;5071008;28;20424;-80
2022/11/24 04:58:58;;;;;;;34.75;25.33;;;;;;;9.68;72.44;98442.06;5071028;28;20025;-80
2022/11/24 05:01:24;;;;;;;35.15;27.70;;;;;;;10.57;72.89;98579.03;5071020;28;20024;-80
2022/11/24 05:03:52;;;;;;;39.33;27.60;;;;;;;10.14;72.10;98502.81;5052985;28;20020;-80
2022/11/24 05:06:17;;;;;;;33.22;24.55;;;;;;;10.96;72.71;98641.63;5070993;28;20028;-80
2022/11/24 05:08:46;;;;;;;32.58;24.30;;;;;;;10.46;72.13;98551.41;5059997;28;20045;-80
2022/11/24 05:11:11;;;;;;;36.75;27.25;;;;;;;10.69;71.81;98591.44;5073097;28;20443;-80
2022/11/24 05:13:37;;;;;;;29.33;20.60;;;;;;;10.42;72.09;98577.41;5074389;28;20089;-80
2022/11/24 05:16:02;;;;;;;27.10;20.58;;;;;;;10.04;71.23;98505.84;5073094;28;20416;-80
2022/11/24 05:18:28;;;;;;;28.48;20.10;;;;;;;10.64;71.33;98596.50;5074344;28;20089;-80
2022/11/24 05:20:53;;;;;;;30.17;19.45;;;;;;;10.59;71.98;98603.41;5074198;28;20408;-80
2022/11/24 05:23:19;;;;;;;27.10;19.88;;;;;;;10.25;71.54;98565.56;5074384;28;20032;-80
2022/11/24 05:25:44;;;;;;;26.60;19.60;;;;;;;10.80;71.33;98651.56;5073169;28;20032;-80
2022/11/24 05:28:10;;;;;;;25.00;18.45;;;;;;;10.83;71.26;98656.44;5073126;28;20028;-80
2022/11/24 05:30:37;;;;;;;25.85;19.90;;;;;;;10.86;70.74;98660.50;5073038;28;20482;-80
2022/11/24 05:33:08;;;;;;;26.20;19.55;;;;;;;10.87;71.50;98662.13;5072814;28;20021;-79
2022/11/24 05:35:35;;;;;;;28.92;21.20;;;;;;;10.72;70.42;98640.38;5072104;28;20082;-80
2022/11/24 05:38:00;;;;;;;24.92;17.80;;;;;;;10.81;71.24;98668.22;5074073;28;20074;-80
2022/11/24 05:40:26;;;;;;;27.27;18.60;;;;;;;10.36;71.09;98617.75;5074046;28;20032;-79
2022/11/24 05:42:51;;;;;;;27.17;19.63;;;;;;;10.56;71.27;98640.75;5074179;28;20020;-80
2022/11/24 05:45:19;;;;;;;28.42;21.02;;;;;;;9.80;71.26;98520.38;5074251;28;20037;-80
2022/11/24 05:47:46;;;;;;;29.35;22.30;;;;;;;10.43;71.16;98604.59;5072728;28;20611;-80
2022/11/24 05:50:14;;;;;;;28.50;23.77;;;;;;;10.89;70.57;98673.31;5072630;28;20417;-80
2022/11/24 05:52:39;;;;;;;33.65;25.33;;;;;;;10.96;70.54;98681.25;5069912;28;20032;-80
2022/11/24 05:55:06;;;;;;;29.70;24.88;;;;;;;10.74;70.54;98654.19;5072574;28;20029;-79
2022/11/24 05:57:32;;;;;;;33.08;24.70;;;;;;;10.67;70.21;98633.06;5063106;28;20425;-79
2022/11/24 05:59:57;;;;;;;31.30;25.05;;;;;;;10.74;70.50;98665.56;5071288;28;20472;-79
2022/11/24 06:02:23;;;;;;;36.05;23.88;;;;;;;10.90;70.35;98674.94;5072399;28;20077;-79
2022/11/24 06:04:49;;;;;;;35.65;24.63;;;;;;;11.01;70.07;98689.38;5073482;28;20115;-81
2022/11/24 06:07:15;;;;;;;33.70;24.38;;;;;;;11.00;70.20;98693.84;5072281;28;20089;-80
2022/11/24 06:09:42;;;;;;;27.95;21.48;;;;;;;10.94;70.14;98692.00;5071981;28;20068;-80
2022/11/24 06:12:10;;;;;;;29.00;22.35;;;;;;;10.40;70.57;98610.25;5073564;28;20045;-79
2022/11/24 06:14:36;;;;;;;32.13;24.60;;;;;;;10.22;70.24;98567.78;5072480;28;20032;-80
2022/11/24 06:17:02;;;;;;;34.10;24.63;;;;;;;11.03;70.04;98692.63;5070816;28;20039;-80
2022/11/24 06:19:28;;;;;;;36.42;25.73;;;;;;;10.45;70.04;98613.13;5072143;28;20056;-79
2022/11/24 06:21:53;;;;;;;30.30;24.60;;;;;;;10.65;70.07;98632.44;5073059;28;20484;-79
2022/11/24 06:24:18;;;;;;;34.22;25.00;;;;;;;10.76;70.32;98668.81;5081843;28;20024;-79
2022/11/24 06:26:44;;;;;;;33.03;25.17;;;;;;;10.83;70.33;98659.09;5096647;28;20024;-79
2022/11/24 06:29:09;;;;;;;36.72;24.85;;;;;;;10.53;69.99;98610.31;5070813;28;20028;-79
2022/11/24 06:31:35;;;;;;;35.58;24.45;;;;;;;11.11;69.98;98709.09;5071392;28;20032;-79
2022/11/24 06:34:00;;;;;;;34.42;24.30;;;;;;;10.45;70.25;98627.13;5065790;28;20500;-81
2022/11/24 06:36:26;;;;;;;32.75;23.70;;;;;;;11.16;70.14;98702.41;5068125;28;20542;-80
2022/11/24 06:38:52;;;;;;;36.78;25.83;;;;;;;11.32;69.76;98715.22;5065298;28;20020;-80
2022/11/24 06:41:18;;;;;;;33.95;23.00;;;;;;;11.39;70.01;98722.16;5071545;28;20029;-81
2022/11/24 06:43:44;;;;;;;28.63;22.13;;;;;;;11.11;69.82;98674.75;5065686;28;20051;-80
2022/11/24 06:46:11;;;;;;;33.22;24.70;;;;;;;11.43;69.85;98727.84;5069379;28;20029;-81
2022/11/24 06:48:36;;;;;;;35.42;24.23;;;;;;;11.43;70.08;98719.91;5070258;28;20038;-81
2022/11/24 06:51:05;;;;;;;32.10;22.65;;;;;;;10.92;69.65;98643.03;5070159;28;20119;-81
2022/11/24 06:53:32;;;;;;;28.55;20.98;;;;;;;11.13;69.60;98691.22;5071574;28;20029;-80
2022/11/24 06:55:59;;;;;;;23.42;16.88;;;;;;;11.49;69.67;98734.13;5069257;28;20107;-80
2022/11/24 06:58:25;;;;;;;23.10;16.73;;;;;;;10.89;69.49;98646.09;5051183;28;20409;-80
2022/11/24 07:00:50;;;;;;;26.67;19.02;;;;;;;11.13;69.90;98679.81;5058521;28;20093;-81
2022/11/24 07:03:18;;;;;;;26.23;19.10;;;;;;;11.50;69.26;98726.00;5070886;28;20021;-81
2022/11/24 07:05:43;;;;;;;23.35;18.13;;;;;;;11.63;69.38;98738.41;5069906;28;20032;-81
2022/11/24 07:08:09;;;;;;;26.27;20.65;;;;;;;11.22;69.18;98675.19;5071188;28;20051;-80
2022/11/24 07:10:34;;;;;;;24.70;19.90;;;;;;;11.50;68.89;98711.97;5071872;28;20497;-81
2022/11/24 07:13:02;;;;;;;29.67;21.17;;;;;;;11.38;69.04;98695.91;5071833;28;20398;-81
2022/11/24 07:15:29;;;;;;;26.17;19.13;;;;;;;11.72;68.80;98731.88;5069680;28;20111;-82
2022/11/24 07:17:55;;;;;;;28.75;20.02;;;;;;;11.29;68.75;98682.09;5066244;28;20043;-80
2022/11/24 07:20:20;;;;;;;31.17;22.75;;;;;;;10.26;68.82;98509.16;5051927;28;20564;-80
2022/11/24 07:22:46;;;;;;;29.65;22.73;;;;;;;11.27;68.80;98649.78;5069333;28;20032;-79
2022/11/24 07:25:13;;;;;;;26.50;20.55;;;;;;;11.87;68.59;98744.91;5070728;28;20024;-79
2022/11/24 07:27:39;;;;;;;24.63;19.38;;;;;;;11.80;68.40;98752.88;5057129;28;20124;-80
2022/11/24 07:30:06;;;;;;;24.20;18.92;;;;;;;11.33;68.25;98642.88;5058692;28;20457;-80
2022/11/24 07:32:31;;;;;;;27.70;19.60;;;;;;;11.89;68.66;98759.59;5072009;28;20059;-79
2022/11/24 07:34:57;;;;;;;21.58;16.67;;;;;;;11.54;68.60;98682.28;5071802;28;20032;-80
2022/11/24 07:37:22;;;;;;;25.25;18.15;;;;;;;12.00;67.68;98734.34;5070643;28;20029;-79
2022/11/24 07:39:48;;;;;;;21.35;17.92;;;;;;;11.61;67.67;98671.69;5053948;28;20035;-79
2022/11/24 07:42:13;;;;;;;23.42;18.08;;;;;;;12.07;67.99;98778.28;5071400;28;20032;-79
2022/11/24 07:44:39;;;;;;;25.02;17.75;;;;;;;11.50;67.51;98638.78;5058811;28;20020;-80
2022/11/24 07:47:05;;;;;;;26.08;20.80;;;;;;;11.51;67.32;98645.69;5071122;28;20051;-79
2022/11/24 07:49:30;;;;;;;23.75;17.63;;;;;;;11.81;67.61;98693.66;5066183;28;20489;-79
2022/11/24 07:51:56;;;;;;;23.48;17.25;;;;;;;11.86;67.72;98716.84;5070146;28;20028;-80
2022/11/24 07:54:21;;;;;;;24.90;17.88;;;;;;;11.70;67.56;98654.59;5070598;28;20020;-79
2022/11/24 07:56:47;;;;;;;26.52;19.50;;;;;;;12.24;67.53;98738.97;5067534;28;20032;-79
2022/11/24 07:59:13;;;;;;;24.23;18.10;;;;;;;10.87;67.34;98501.06;5070576;28;20126;-79
2022/11/24 08:01:39;;;;;;;21.67;16.80;;;;;;;12.39;66.92;98741.34;5052384;28;20115;-79
2022/11/24 08:04:05;;;;;;;19.30;16.33;;;;;;;10.40;67.04;98422.91;5070813;28;20032;-79
2022/11/24 08:06:31;;;;;;;22.42;16.35;;;;;;;11.88;66.63;98646.03;5052961;28;20028;-79
2022/11/24 08:08:56;;;;;;;21.42;15.85;;;;;;;12.41;66.56;98742.78;5060303;28;20056;-79
2022/11/24 08:11:22;;;;;;;22.83;16.65;;;;;;;12.53;66.46;98736.81;5064822;28;20032;-79
2022/11/24 08:13:47;;;;;;;23.90;17.35;;;;;;;12.35;66.37;98721.63;5070999;28;20509;-79
2022/11/24 08:16:15;;;;;;;23.33;15.93;;;;;;;11.91;66.30;98637.72;5068622;28;20024;-79
2022/11/24 08:18:41;;;;;;;19.92;17.08;;;;;;;12.26;66.36;98701.69;5069786;28;20086;-80
2022/11/24 08:21:12;;;;;;;22.02;18.08;;;;;;;12.64;66.46;98737.00;5069040;28;20111;-79
2022/11/24 08:23:37;;;;;;;27.50;19.10;;;;;;;12.40;66.66;98705.94;5063364;28;20032;-80
2022/11/24 08:26:09;;;;;;;29.90;20.85;;;;;;;12.50;66.75;98701.00;5067170;28;20032;-79
2022/11/24 08:28:37;;;;;;;27.95;19.15;;;;;;;12.81;66.69;98747.13;5069826;28;20093;-79
2022/11/24 08:31:04;;;;;;;28.40;21.75;;;;;;;12.83;66.04;98715.94;5066896;28;20020;-79
2022/11/24 08:33:30;;;;;;;27.25;20.88;;;;;;;12.68;66.19;98700.31;5069234;28;20062;-79
2022/11/24 08:36:00;;;;;;;40.47;31.35;;;;;;;13.13;66.46;98753.25;5065617;28;20044;-79
2022/11/24 08:38:26;;;;;;;35.83;27.35;;;;;;;12.76;65.99;98675.41;5066474;28;20028;-79
2022/11/24 08:40:51;;;;;;;19.83;16.48;;;;;;;12.91;65.56;98726.28;5067921;28;20670;-80
2022/11/24 08:43:17;;;;;;;16.35;12.88;;;;;;;13.24;65.38;98753.41;5069891;28;20028;-80
2022/11/24 08:45:42;;;;;;;15.18;11.75;;;;;;;12.66;65.20;98655.50;5072542;28;20056;-79
2022/11/24 08:48:08;;;;;;;17.75;11.93;;;;;;;12.64;65.11;98644.31;5077647;28;20086;-79
2022/11/24 08:50:34;;;;;;;15.55;11.05;;;;;;;13.19;65.10;98736.53;5092575;28;20024;-79
2022/11/24 08:52:59;;;;;;;18.98;13.13;;;;;;;13.21;64.93;98751.19;5085175;28;20025;-79
2022/11/24 08:55:25;;;;;;;16.38;11.52;;;;;;;12.98;64.79;98722.56;5072815;28;20090;-79
2022/11/24 08:57:50;;;;;;;15.38;11.60;;;;;;;12.77;64.87;98680.50;5075245;28;20033;-80
2022/11/24 09:00:21;;;;;;;15.73;11.52;;;;;;;12.71;64.93;98676.88;5075279;28;20496;-79
2022/11/24 09:02:55;;;;;;;12.18;10.68;;;;;;;12.90;64.37;98698.16;5075377;28;20108;-80
2022/11/24 09:05:20;;;;;;;12.15;9.80;;;;;;;12.63;64.26;98624.16;5073363;28;20025;-79
2022/11/24 09:07:46;;;;;;;13.00;11.02;;;;;;;13.35;64.11;98731.50;5076244;28;20031;-79
2022/11/24 09:10:12;;;;;;;15.18;11.38;;;;;;;12.84;63.69;98652.13;5070831;28;20028;-80
2022/11/24 09:12:38;;;;;;;14.93;11.30;;;;;;;13.17;63.35;98718.19;5095990;28;20088;-79
2022/11/24 09:15:03;;;;;;;13.95;10.63;;;;;;;13.01;63.03;98689.53;5051367;28;20064;-80
2022/11/24 09:17:29;;;;;;;16.48;11.73;;;;;;;13.16;63.31;98684.72;5071025;28;20029;-79
2022/11/24 09:19:54;;;;;;;14.75;12.13;;;;;;;13.15;63.17;98679.63;5056802;28;20111;-79
2022/11/24 09:22:20;;;;;;;14.45;11.02;;;;;;;13.33;63.03;98695.63;5072570;28;20105;-79
2022/11/24 09:24:45;;;;;;;15.13;11.18;;;;;;;12.98;62.59;98631.66;5041941;28;20036;-80
2022/11/24 09:27:11;;;;;;;13.80;10.63;;;;;;;12.93;62.40;98619.06;5067585;28;20099;-79
2022/11/24 09:29:36;;;;;;;15.25;10.25;;;;;;;13.31;62.34;98676.47;5056393;28;20489;-79
2022/11/24 09:32:02;;;;;;;14.73;10.77;;;;;;;13.71;61.97;98726.53;5074549;28;20052;-79
2022/11/24 09:34:27;;;;;;;15.90;11.10;;;;;;;13.22;61.84;98633.53;5050096;28;20390;-79
2022/11/24 09:36:53;;;;;;;17.88;12.43;;;;;;;13.15;61.88;98632.75;5054197;28;20052;-79
2022/11/24 09:39:18;;;;;;;16.80;11.50;;;;;;;13.27;61.69;98638.97;5042079;28;20466;-80
2022/11/24 09:42:08;;;;;;;16.67;11.13;;;;;;;13.79;61.44;98723.63;5067285;28;20033;-79
2022/11/24 09:44:52;;;;;;;15.02;12.30;;;;;;;13.89;61.88;98722.09;5034368;28;20057;-79
2022/11/24 09:48:07;;;;;;;16.35;11.30;;;;;;;13.96;61.85;98714.88;5033821;28;20098;-79
2022/11/24 09:50:35;;;;;;;15.98;11.82;;;;;;;13.60;61.50;98646.66;4992780;28;20507;-79
2022/11/24 09:53:04;;;;;;;13.43;10.75;;;;;;;14.11;61.19;98706.53;5030220;28;20071;-79
2022/11/24 09:55:49;;;;;;;13.77;11.18;;;;;;;14.14;60.61;98705.31;5032617;28;20045;-79
2022/11/24 09:58:23;;;;;;;13.30;10.77;;;;;;;14.19;61.00;98710.78;5033641;28;20036;-80
2022/11/24 10:00:52;;;;;;;16.20;11.55;;;;;;;13.44;60.85;98593.38;5016114;28;20041;-79
2022/11/24 10:03:30;;;;;;;14.40;10.88;;;;;;;13.64;60.64;98623.97;5034014;28;20044;-79
2022/11/24 10:05:57;;;;;;;13.77;10.60;;;;;;;13.65;60.97;98606.22;5033544;28;20084;-79
2022/11/24 10:08:37;;;;;;;12.98;9.88;;;;;;;13.73;60.04;98600.63;5041172;28;20048;-79
2022/11/24 10:11:11;;;;;;;11.57;9.52;;;;;;;14.04;60.20;98646.59;5053598;28;20102;-80
2022/11/24 10:13:45;;;;;;;12.48;9.45;;;;;;;14.49;59.85;98711.66;5035397;28;20420;-79
2022/11/24 10:16:19;;;;;;;13.13;9.63;;;;;;;14.56;59.48;98701.78;5053428;28;20029;-79
2022/11/24 10:18:53;;;;;;;13.43;10.50;;;;;;;14.04;59.16;98598.81;5035577;28;20035;-79
2022/11/24 10:21:21;;;;;;;12.90;10.38;;;;;;;14.73;59.00;98701.16;5035427;28;20515;-80
2022/11/24 10:24:21;;;;;;;10.90;8.63;;;;;;;14.83;59.07;98693.44;5035361;28;20036;-80
2022/11/24 10:27:00;;;;;;;12.93;8.32;;;;;;;14.68;58.55;98642.56;5053076;28;20464;-79
2022/11/24 10:29:39;;;;;;;11.90;8.73;;;;;;;14.44;57.03;98588.53;5035308;28;20131;-80
2022/11/24 10:32:29;;;;;;;11.48;8.00;;;;;;;14.96;56.88;98648.09;5053072;28;20052;-79
2022/11/24 10:34:59;;;;;;;8.45;6.93;;;;;;;14.75;56.50;98590.13;5053300;28;20099;-79
2022/11/24 10:38:05;;;;;;;8.40;7.03;;;;;;;15.14;55.44;98644.53;5035124;28;20043;-79
2022/11/24 10:40:33;;;;;;;8.90;6.57;;;;;;;15.36;56.00;98674.03;5020386;28;20117;-79
2022/11/24 10:42:59;;;;;;;10.20;7.07;;;;;;;15.31;56.04;98647.31;5052490;28;20095;-79
2022/11/24 10:45:27;;;;;;;9.90;7.07;;;;;;;15.52;55.49;98679.50;5052721;28;20036;-79
2022/11/24 10:47:52;;;;;;;12.02;7.70;;;;;;;15.24;55.33;98634.94;5052746;28;20501;-79
2022/11/24 10:50:33;;;;;;;11.15;8.15;;;;;;;14.20;55.75;98460.19;5035147;28;20025;-78
2022/11/24 10:53:08;;;;;;;11.35;7.70;;;;;;;15.60;54.83;98667.72;5034477;28;20486;-80
2022/11/24 10:55:55;;;;;;;13.73;8.88;;;;;;;15.56;55.58;98667.34;5052677;28;20496;-78
2022/11/24 10:58:37;;;;;;;9.02;7.15;;;;;;;15.10;54.81;98600.84;5034767;28;20032;-79
2022/11/24 11:01:12;;;;;;;8.38;6.53;;;;;;;15.48;54.96;98662.38;5034374;28;20033;-79
2022/11/24 11:03:45;;;;;;;11.13;7.47;;;;;;;15.47;55.71;98667.91;5052851;28;20051;-78
2022/11/24 11:06:14;;;;;;;9.38;6.55;;;;;;;15.35;55.50;98653.81;5034561;28;20024;-79
2022/11/24 11:08:39;;;;;;;9.95;6.50;;;;;;;14.67;55.61;98546.09;5052276;28;20053;-78
2022/11/24 11:11:28;;;;;;;8.60;7.38;;;;;;;15.48;55.96;98667.69;5052667;28;20047;-79
2022/11/24 11:13:56;;;;;;;8.95;7.30;;;;;;;15.51;56.00;98656.59;5052452;28;20013;-79
2022/11/24 11:16:34;;;;;;;9.68;5.70;;;;;;;15.39;55.17;98628.38;5052162;28;20047;-79
2022/11/24 11:19:02;;;;;;;7.85;5.40;;;;;;;14.92;54.46;98585.78;5052463;28;20032;-79
2022/11/24 11:21:33;;;;;;;6.85;5.03;;;;;;;15.43;54.17;98624.19;5052327;28;20025;-78
2022/11/24 11:24:01;;;;;;;7.28;5.53;;;;;;;15.37;54.10;98611.81;5052259;28;20025;-79